createdAt,value
2022-11-13T00:02:16.129Z,0
2022-11-13T00:17:12.563Z,0
2022-11-13T00:32:08.831Z,0
2022-11-13T00:47:04.851Z,0
2022-11-13T01:02:01.272Z,0
2022-11-13T01:16:57.250Z,0
2022-11-13T01:31:53.309Z,0
2022-11-13T01:46:49.572Z,0
2022-11-13T02:01:45.667Z,0
2022-11-13T02:16:42.404Z,0
2022-11-13T02:31:38.381Z,0
2022-11-13T02:46:34.545Z,0
2022-11-13T03:01:30.266Z,0
2022-11-13T03:16:26.238Z,0
2022-11-13T03:31:22.742Z,0
2022-11-13T03:46:19.045Z,0
2022-11-13T04:01:15.202Z,0
2022-11-13T04:16:11.547Z,0
2022-11-13T04:31:07.637Z,0
2022-11-13T04:46:04.332Z,0
2022-11-13T05:01:00.094Z,0
2022-11-13T05:15:56.445Z,0
2022-11-13T05:30:51.927Z,0
2022-11-13T05:45:48.090Z,0
2022-11-13T06:00:43.848Z,0
2022-11-13T06:15:40.154Z,0
2022-11-13T06:30:35.620Z,0.01
2022-11-13T06:45:31.670Z,0
2022-11-13T07:00:31.056Z,0
2022-11-13T07:15:23.799Z,0.06
2022-11-13T07:30:19.654Z,0.04
2022-11-13T07:45:16.144Z,0.05
2022-11-13T08:00:12.058Z,0.06
2022-11-13T08:15:13.190Z,0.06
2022-11-13T08:30:04.658Z,0.06
2022-11-13T08:45:01.595Z,0.08
2022-11-13T08:59:57.944Z,0.08
2022-11-13T09:14:54.527Z,0.09
2022-11-13T09:29:55.287Z,0.1
2022-11-13T09:44:47.780Z,0.08
2022-11-13T09:59:44.329Z,0.08
2022-11-13T10:14:40.888Z,0.09
2022-11-13T10:29:37.514Z,0.08
2022-11-13T10:44:34.510Z,0.06
2022-11-13T10:59:30.909Z,0.1
2022-11-13T11:14:27.445Z,0.1
2022-11-13T11:29:24.370Z,0.15
2022-11-13T11:44:20.636Z,0.09
2022-11-13T11:59:16.721Z,0.1
2022-11-13T12:14:13.622Z,0.1
2022-11-13T12:29:10.290Z,0.14
2022-11-13T12:44:07.068Z,0.1
2022-11-13T12:59:28.983Z,0.09
2022-11-13T13:14:00.329Z,0.08
2022-11-13T13:28:56.571Z,0.08
2022-11-13T13:43:52.636Z,0.08
2022-11-13T13:58:48.724Z,0.07
2022-11-13T14:13:45.222Z,0.07
2022-11-13T14:28:41.496Z,0.07
2022-11-13T14:43:37.343Z,0.06
2022-11-13T14:58:33.010Z,0.05
2022-11-13T15:13:29.680Z,0.05
2022-11-13T15:28:25.199Z,0.03
2022-11-13T15:43:21.184Z,0.02
2022-11-13T15:58:16.681Z,0.01
2022-11-13T16:13:12.338Z,0.02
2022-11-13T16:28:08.020Z,0.01
2022-11-13T16:43:03.775Z,0
2022-11-13T16:57:59.704Z,0
2022-11-13T17:12:55.837Z,0
2022-11-13T17:27:52.016Z,0
2022-11-13T17:42:47.438Z,0
2022-11-13T17:57:43.182Z,0
2022-11-13T18:12:39.249Z,0.01
2022-11-13T18:27:35.558Z,0
2022-11-13T18:42:31.223Z,0
2022-11-13T18:57:27.798Z,0
2022-11-13T19:12:23.883Z,0
2022-11-13T19:27:19.374Z,0
2022-11-13T19:42:15.165Z,0
2022-11-13T19:57:11.320Z,0
2022-11-13T20:12:06.948Z,0
2022-11-13T20:27:03.079Z,0
2022-11-13T20:41:59.453Z,0
2022-11-13T20:56:55.281Z,0
2022-11-13T21:11:51.359Z,0
2022-11-13T21:26:47.449Z,0
2022-11-13T21:41:44.220Z,0
2022-11-13T21:56:40.086Z,0
2022-11-13T23:11:20.216Z,0
2022-11-13T23:26:15.961Z,0
2022-11-13T23:41:12.268Z,0
2022-11-13T23:56:07.910Z,0
